sensor_id;sensor_type;location;lat;lon;timestamp;pressure;altitude;pressure_sealevel;temperature;humidity
76108;BME280;64834;52.516;10.528;2023-08-31T00:00:43;99937.59;;;13.56;100.00
76108;BME280;64834;52.516;10.528;2023-08-31T00:03:09;99942.06;;;13.58;100.00
76108;BME280;64834;52.516;10.528;2023-08-31T00:05:42;99940.19;;;13.54;100.00
76108;BME280;64834;52.516;10.528;2023-08-31T00:08:07;99943.75;;;13.56;100.00
76108;BME280;64834;52.516;10.528;2023-08-31T00:10:34;99941.09;;;13.56;100.00
76108;BME280;64834;52.516;10.528;2023-08-31T00:13:03;99942.97;;;13.59;100.00
76108;BME280;64834;52.516;10.528;2023-08-31T00:15:29;99942.13;;;13.60;100.00
76108;BME280;64834;52.516;10.528;2023-08-31T00:17:57;99939.19;;;13.50;100.00
76108;BME280;64834;52.516;10.528;2023-08-31T00:20:23;99940.06;;;13.51;100.00
76108;BME280;64834;52.516;10.528;2023-08-31T00:22:48;99944.44;;;13.50;100.00
76108;BME280;64834;52.516;10.528;2023-08-31T00:25:14;99939.88;;;13.45;100.00
76108;BME280;64834;52.516;10.528;2023-08-31T00:27:40;99939.88;;;13.45;100.00
76108;BME280;64834;52.516;10.528;2023-08-31T00:30:06;99942.38;;;13.40;100.00
76108;BME280;64834;52.516;10.528;2023-08-31T00:32:36;99948.41;;;13.38;100.00
76108;BME280;64834;52.516;10.528;2023-08-31T00:35:01;99954.47;;;13.35;100.00
76108;BME280;64834;52.516;10.528;2023-08-31T00:37:28;99948.00;;;13.26;100.00
76108;BME280;64834;52.516;10.528;2023-08-31T00:39:54;99952.53;;;13.30;100.00
76108;BME280;64834;52.516;10.528;2023-08-31T00:42:19;99952.72;;;13.36;100.00
76108;BME280;64834;52.516;10.528;2023-08-31T00:44:45;99954.28;;;13.29;100.00
76108;BME280;64834;52.516;10.528;2023-08-31T00:47:12;99949.09;;;13.32;100.00
76108;BME280;64834;52.516;10.528;2023-08-31T00:49:39;99948.28;;;13.33;100.00
76108;BME280;64834;52.516;10.528;2023-08-31T00:52:05;99944.66;;;13.30;100.00
76108;BME280;64834;52.516;10.528;2023-08-31T00:54:31;99956.75;;;13.25;100.00
76108;BME280;64834;52.516;10.528;2023-08-31T00:56:57;99962.16;;;13.29;100.00
76108;BME280;64834;52.516;10.528;2023-08-31T00:59:23;99957.63;;;13.25;100.00
76108;BME280;64834;52.516;10.528;2023-08-31T01:02:11;99963.66;;;13.21;100.00
76108;BME280;64834;52.516;10.528;2023-08-31T01:04:54;99959.13;;;13.18;100.00
76108;BME280;64834;52.516;10.528;2023-08-31T01:07:34;99956.16;;;13.08;100.00
76108;BME280;64834;52.516;10.528;2023-08-31T01:10:18;99947.28;;;13.04;100.00
76108;BME280;64834;52.516;10.528;2023-08-31T01:12:50;99950.41;;;12.94;100.00
76108;BME280;64834;52.516;10.528;2023-08-31T01:15:17;99957.31;;;12.90;100.00
76108;BME280;64834;52.516;10.528;2023-08-31T01:17:48;99956.63;;;12.96;100.00
76108;BME280;64834;52.516;10.528;2023-08-31T01:20:19;99956.34;;;12.88;100.00
76108;BME280;64834;52.516;10.528;2023-08-31T01:23:02;99958.81;;;12.82;100.00
76108;BME280;64834;52.516;10.528;2023-08-31T01:25:29;99956.84;;;12.77;100.00
76108;BME280;64834;52.516;10.528;2023-08-31T01:27:56;99964.66;;;12.75;100.00
76108;BME280;64834;52.516;10.528;2023-08-31T01:30:21;99967.91;;;12.68;100.00
76108;BME280;64834;52.516;10.528;2023-08-31T01:32:47;99966.13;;;12.67;100.00
76108;BME280;64834;52.516;10.528;2023-08-31T01:35:14;99973.19;;;12.69;100.00
76108;BME280;64834;52.516;10.528;2023-08-31T01:37:48;99976.53;;;12.64;100.00
76108;BME280;64834;52.516;10.528;2023-08-31T01:42:51;99976.44;;;12.62;100.00
76108;BME280;64834;52.516;10.528;2023-08-31T01:45:19;99980.66;;;12.57;100.00
76108;BME280;64834;52.516;10.528;2023-08-31T01:47:46;99982.28;;;12.54;100.00
76108;BME280;64834;52.516;10.528;2023-08-31T01:50:12;99982.22;;;12.52;100.00
76108;BME280;64834;52.516;10.528;2023-08-31T01:52:37;99982.53;;;12.37;100.00
76108;BME280;64834;52.516;10.528;2023-08-31T01:55:04;99990.38;;;12.36;100.00
76108;BME280;64834;52.516;10.528;2023-08-31T01:57:30;99981.72;;;12.38;100.00
76108;BME280;64834;52.516;10.528;2023-08-31T01:59:55;99983.34;;;12.35;100.00
76108;BME280;64834;52.516;10.528;2023-08-31T02:02:20;99976.34;;;12.35;100.00
76108;BME280;64834;52.516;10.528;2023-08-31T02:04:46;99984.03;;;12.31;100.00
76108;BME280;64834;52.516;10.528;2023-08-31T02:07:11;99985.72;;;12.29;100.00
76108;BME280;64834;52.516;10.528;2023-08-31T02:09:36;99984.84;;;12.28;100.00
76108;BME280;64834;52.516;10.528;2023-08-31T02:12:02;99988.25;;;12.26;100.00
76108;BME280;64834;52.516;10.528;2023-08-31T02:14:29;99989.19;;;12.28;100.00
76108;BME280;64834;52.516;10.528;2023-08-31T02:16:54;99992.53;;;12.24;100.00
76108;BME280;64834;52.516;10.528;2023-08-31T02:19:20;99995.91;;;12.20;100.00
76108;BME280;64834;52.516;10.528;2023-08-31T02:21:45;99992.34;;;12.19;100.00
76108;BME280;64834;52.516;10.528;2023-08-31T02:24:10;99995.56;;;12.12;100.00
76108;BME280;64834;52.516;10.528;2023-08-31T02:26:36;100004.19;;;12.08;100.00
76108;BME280;64834;52.516;10.528;2023-08-31T02:29:02;100007.69;;;12.08;100.00
76108;BME280;64834;52.516;10.528;2023-08-31T02:31:28;100004.00;;;12.03;100.00
76108;BME280;64834;52.516;10.528;2023-08-31T02:33:53;100006.56;;;12.02;100.00
76108;BME280;64834;52.516;10.528;2023-08-31T02:36:18;100001.00;;;11.94;100.00
76108;BME280;64834;52.516;10.528;2023-08-31T02:38:46;100008.16;;;11.98;100.00
76108;BME280;64834;52.516;10.528;2023-08-31T02:41:11;100015.09;;;11.96;100.00
76108;BME280;64834;52.516;10.528;2023-08-31T02:43:37;100008.78;;;11.91;100.00
76108;BME280;64834;52.516;10.528;2023-08-31T02:46:03;100006.84;;;11.87;100.00
76108;BME280;64834;52.516;10.528;2023-08-31T02:48:29;100010.31;;;11.86;100.00
76108;BME280;64834;52.516;10.528;2023-08-31T02:50:59;100006.97;;;11.90;100.00
76108;BME280;64834;52.516;10.528;2023-08-31T02:53:29;100003.66;;;11.73;100.00
76108;BME280;64834;52.516;10.528;2023-08-31T02:55:54;100007.06;;;11.71;100.00
76108;BME280;64834;52.516;10.528;2023-08-31T02:58:20;100017.50;;;11.69;100.00
76108;BME280;64834;52.516;10.528;2023-08-31T03:00:45;100002.75;;;11.73;100.00
76108;BME280;64834;52.516;10.528;2023-08-31T03:03:16;100012.69;;;11.59;100.00
76108;BME280;64834;52.516;10.528;2023-08-31T03:05:42;100013.44;;;11.56;100.00
76108;BME280;64834;52.516;10.528;2023-08-31T03:08:08;100019.63;;;11.57;100.00
76108;BME280;64834;52.516;10.528;2023-08-31T03:10:33;100017.81;;;11.56;100.00
76108;BME280;64834;52.516;10.528;2023-08-31T03:12:59;100023.25;;;11.60;100.00
76108;BME280;64834;52.516;10.528;2023-08-31T03:15:24;100023.13;;;11.57;100.00
76108;BME280;64834;52.516;10.528;2023-08-31T03:17:49;100031.03;;;11.59;100.00
76108;BME280;64834;52.516;10.528;2023-08-31T03:20:15;100037.13;;;11.58;100.00
76108;BME280;64834;52.516;10.528;2023-08-31T03:22:40;100032.53;;;11.52;100.00
76108;BME280;64834;52.516;10.528;2023-08-31T03:25:06;100027.13;;;11.49;100.00
76108;BME280;64834;52.516;10.528;2023-08-31T03:27:31;100030.47;;;11.45;100.00
76108;BME280;64834;52.516;10.528;2023-08-31T03:29:56;100034.06;;;11.47;100.00
76108;BME280;64834;52.516;10.528;2023-08-31T03:32:22;100034.88;;;11.46;100.00
76108;BME280;64834;52.516;10.528;2023-08-31T03:34:48;100034.84;;;11.45;100.00
76108;BME280;64834;52.516;10.528;2023-08-31T03:37:13;100045.22;;;11.43;100.00
76108;BME280;64834;52.516;10.528;2023-08-31T03:39:38;100039.25;;;11.46;100.00
76108;BME280;64834;52.516;10.528;2023-08-31T03:42:06;100034.75;;;11.43;100.00
76108;BME280;64834;52.516;10.528;2023-08-31T03:44:31;100041.91;;;11.47;100.00
76108;BME280;64834;52.516;10.528;2023-08-31T03:46:57;100027.97;;;11.48;100.00
76108;BME280;64834;52.516;10.528;2023-08-31T03:49:22;100032.97;;;11.42;100.00
76108;BME280;64834;52.516;10.528;2023-08-31T03:51:47;100032.00;;;11.40;100.00
76108;BME280;64834;52.516;10.528;2023-08-31T03:54:13;100027.09;;;11.48;100.00
76108;BME280;64834;52.516;10.528;2023-08-31T03:56:38;100037.63;;;11.49;100.00
76108;BME280;64834;52.516;10.528;2023-08-31T03:59:05;100030.59;;;11.48;100.00
76108;BME280;64834;52.516;10.528;2023-08-31T04:01:30;100040.06;;;11.45;100.00
76108;BME280;64834;52.516;10.528;2023-08-31T04:03:55;100038.41;;;11.47;100.00
76108;BME280;64834;52.516;10.528;2023-08-31T04:06:21;100046.31;;;11.48;100.00
76108;BME280;64834;52.516;10.528;2023-08-31T04:08:46;100043.75;;;11.50;100.00
76108;BME280;64834;52.516;10.528;2023-08-31T04:11:12;100045.22;;;11.43;100.00
76108;BME280;64834;52.516;10.528;2023-08-31T04:13:37;100031.88;;;11.37;100.00
76108;BME280;64834;52.516;10.528;2023-08-31T04:16:02;100041.34;;;11.33;100.00
76108;BME280;64834;52.516;10.528;2023-08-31T04:18:28;100045.94;;;11.39;100.00
76108;BME280;64834;52.516;10.528;2023-08-31T04:20:54;100047.47;;;11.34;100.00
76108;BME280;64834;52.516;10.528;2023-08-31T04:23:20;100044.97;;;11.37;100.00
76108;BME280;64834;52.516;10.528;2023-08-31T04:25:46;100050.16;;;11.35;100.00
76108;BME280;64834;52.516;10.528;2023-08-31T04:28:12;100048.25;;;11.31;100.00
76108;BME280;64834;52.516;10.528;2023-08-31T04:30:39;100049.41;;;11.38;100.00
76108;BME280;64834;52.516;10.528;2023-08-31T04:33:06;100053.72;;;11.38;100.00
76108;BME280;64834;52.516;10.528;2023-08-31T04:35:31;100058.06;;;11.37;100.00
76108;BME280;64834;52.516;10.528;2023-08-31T04:37:57;100062.34;;;11.35;100.00
76108;BME280;64834;52.516;10.528;2023-08-31T04:40:22;100069.44;;;11.38;100.00
76108;BME280;64834;52.516;10.528;2023-08-31T04:42:48;100058.47;;;11.46;100.00
76108;BME280;64834;52.516;10.528;2023-08-31T04:45:13;100067.28;;;11.48;100.00
76108;BME280;64834;52.516;10.528;2023-08-31T04:47:39;100070.88;;;11.50;100.00
76108;BME280;64834;52.516;10.528;2023-08-31T04:50:04;100073.28;;;11.46;100.00
76108;BME280;64834;52.516;10.528;2023-08-31T04:52:31;100076.22;;;11.53;100.00
76108;BME280;64834;52.516;10.528;2023-08-31T04:54:57;100088.81;;;11.62;100.00
76108;BME280;64834;52.516;10.528;2023-08-31T04:57:22;100075.69;;;11.62;100.00
76108;BME280;64834;52.516;10.528;2023-08-31T04:59:48;100082.03;;;11.67;100.00
76108;BME280;64834;52.516;10.528;2023-08-31T05:02:14;100067.94;;;11.64;100.00
76108;BME280;64834;52.516;10.528;2023-08-31T05:04:39;100083.91;;;11.70;100.00
76108;BME280;64834;52.516;10.528;2023-08-31T05:07:04;100082.47;;;11.78;100.00
76108;BME280;64834;52.516;10.528;2023-08-31T05:09:30;100081.81;;;11.82;100.00
76108;BME280;64834;52.516;10.528;2023-08-31T05:12:00;100083.84;;;11.89;100.00
76108;BME280;64834;52.516;10.528;2023-08-31T05:14:25;100090.03;;;11.91;100.00
76108;BME280;64834;52.516;10.528;2023-08-31T05:16:50;100091.19;;;11.98;100.00
76108;BME280;64834;52.516;10.528;2023-08-31T05:19:16;100085.03;;;11.97;100.00
76108;BME280;64834;52.516;10.528;2023-08-31T05:21:41;100088.81;;;12.04;100.00
76108;BME280;64834;52.516;10.528;2023-08-31T05:24:07;100091.47;;;12.05;100.00
76108;BME280;64834;52.516;10.528;2023-08-31T05:26:32;100095.78;;;12.03;100.00
76108;BME280;64834;52.516;10.528;2023-08-31T05:28:57;100099.09;;;11.99;100.00
76108;BME280;64834;52.516;10.528;2023-08-31T05:31:23;100093.25;;;12.06;100.00
76108;BME280;64834;52.516;10.528;2023-08-31T05:33:49;100103.84;;;12.08;100.00
76108;BME280;64834;52.516;10.528;2023-08-31T05:36:14;100111.81;;;12.11;100.00
76108;BME280;64834;52.516;10.528;2023-08-31T05:38:39;100112.06;;;12.17;100.00
76108;BME280;64834;52.516;10.528;2023-08-31T05:41:08;100103.78;;;12.29;100.00
76108;BME280;64834;52.516;10.528;2023-08-31T05:43:35;100100.38;;;12.31;100.00
76108;BME280;64834;52.516;10.528;2023-08-31T05:46:01;100102.56;;;12.43;100.00
76108;BME280;64834;52.516;10.528;2023-08-31T05:48:26;100103.38;;;12.40;100.00
76108;BME280;64834;52.516;10.528;2023-08-31T05:50:52;100107.22;;;12.50;100.00
76108;BME280;64834;52.516;10.528;2023-08-31T05:53:17;100114.34;;;12.53;100.00
76108;BME280;64834;52.516;10.528;2023-08-31T05:55:42;100107.78;;;12.64;100.00
76108;BME280;64834;52.516;10.528;2023-08-31T05:58:08;100113.25;;;12.70;100.00
76108;BME280;64834;52.516;10.528;2023-08-31T06:00:33;100111.56;;;12.72;100.00
76108;BME280;64834;52.516;10.528;2023-08-31T06:02:58;100112.34;;;12.69;100.00
76108;BME280;64834;52.516;10.528;2023-08-31T06:05:24;100123.56;;;12.65;100.00
76108;BME280;64834;52.516;10.528;2023-08-31T06:07:49;100124.69;;;12.72;100.00
76108;BME280;64834;52.516;10.528;2023-08-31T06:10:15;100132.00;;;12.81;100.00
76108;BME280;64834;52.516;10.528;2023-08-31T06:12:41;100120.63;;;12.80;100.00
76108;BME280;64834;52.516;10.528;2023-08-31T06:15:06;100132.25;;;12.87;100.00
76108;BME280;64834;52.516;10.528;2023-08-31T06:17:32;100135.81;;;13.13;100.00
76108;BME280;64834;52.516;10.528;2023-08-31T06:19:57;100140.69;;;13.26;100.00
76108;BME280;64834;52.516;10.528;2023-08-31T06:22:22;100136.94;;;13.19;100.00
76108;BME280;64834;52.516;10.528;2023-08-31T06:24:49;100139.41;;;13.15;100.00
76108;BME280;64834;52.516;10.528;2023-08-31T06:27:15;100146.00;;;13.04;100.00
76108;BME280;64834;52.516;10.528;2023-08-31T06:29:41;100138.84;;;13.00;100.00
76108;BME280;64834;52.516;10.528;2023-08-31T06:32:07;100142.72;;;13.09;100.00
76108;BME280;64834;52.516;10.528;2023-08-31T06:34:32;100139.81;;;13.26;100.00
76108;BME280;64834;52.516;10.528;2023-08-31T06:36:58;100141.09;;;13.37;100.00
76108;BME280;64834;52.516;10.528;2023-08-31T06:39:23;100131.59;;;13.40;100.00
76108;BME280;64834;52.516;10.528;2023-08-31T06:41:49;100143.38;;;13.77;100.00
76108;BME280;64834;52.516;10.528;2023-08-31T06:44:14;100136.28;;;14.01;100.00
76108;BME280;64834;52.516;10.528;2023-08-31T06:46:39;100143.69;;;14.13;97.67
76108;BME280;64834;52.516;10.528;2023-08-31T06:49:05;100140.09;;;14.38;96.79
76108;BME280;64834;52.516;10.528;2023-08-31T06:51:31;100153.34;;;14.68;95.42
76108;BME280;64834;52.516;10.528;2023-08-31T06:53:57;100150.44;;;14.89;93.14
76108;BME280;64834;52.516;10.528;2023-08-31T06:56:29;100150.91;;;15.04;90.70
76108;BME280;64834;52.516;10.528;2023-08-31T06:58:54;100162.56;;;15.13;89.30
76108;BME280;64834;52.516;10.528;2023-08-31T07:01:20;100159.91;;;15.13;90.81
76108;BME280;64834;52.516;10.528;2023-08-31T07:03:45;100161.16;;;15.25;89.52
76108;BME280;64834;52.516;10.528;2023-08-31T07:06:11;100162.00;;;15.24;90.22
76108;BME280;64834;52.516;10.528;2023-08-31T07:08:36;100168.38;;;15.62;90.25
76108;BME280;64834;52.516;10.528;2023-08-31T07:11:02;100168.69;;;15.43;88.22
76108;BME280;64834;52.516;10.528;2023-08-31T07:13:27;100162.19;;;15.30;88.92
76108;BME280;64834;52.516;10.528;2023-08-31T07:15:53;100164.47;;;15.18;89.25
76108;BME280;64834;52.516;10.528;2023-08-31T07:18:19;100172.09;;;15.71;87.57
76108;BME280;64834;52.516;10.528;2023-08-31T07:20:45;100166.53;;;15.93;84.97
76108;BME280;64834;52.516;10.528;2023-08-31T07:23:11;100165.72;;;15.62;84.71
76108;BME280;64834;52.516;10.528;2023-08-31T07:25:36;100166.44;;;15.57;84.92
76108;BME280;64834;52.516;10.528;2023-08-31T07:28:01;100168.00;;;15.19;86.67
76108;BME280;64834;52.516;10.528;2023-08-31T07:30:28;100165.16;;;15.43;86.45
76108;BME280;64834;52.516;10.528;2023-08-31T07:32:55;100165.75;;;15.32;86.09
76108;BME280;64834;52.516;10.528;2023-08-31T07:35:20;100165.53;;;14.95;86.87
76108;BME280;64834;52.516;10.528;2023-08-31T07:37:45;100167.41;;;15.27;86.87
76108;BME280;64834;52.516;10.528;2023-08-31T07:40:11;100169.91;;;15.56;85.48
76108;BME280;64834;52.516;10.528;2023-08-31T07:42:37;100164.22;;;16.05;83.77
76108;BME280;64834;52.516;10.528;2023-08-31T07:45:04;100154.63;;;16.46;81.79
76108;BME280;64834;52.516;10.528;2023-08-31T07:47:30;100158.66;;;17.09;81.14
76108;BME280;64834;52.516;10.528;2023-08-31T07:49:56;100158.16;;;17.27;78.07
76108;BME280;64834;52.516;10.528;2023-08-31T07:52:21;100169.56;;;16.46;77.72
76108;BME280;64834;52.516;10.528;2023-08-31T07:54:47;100175.66;;;16.06;81.00
76108;BME280;64834;52.516;10.528;2023-08-31T07:57:12;100178.91;;;15.62;81.86
76108;BME280;64834;52.516;10.528;2023-08-31T07:59:37;100180.47;;;15.56;83.59
76108;BME280;64834;52.516;10.528;2023-08-31T08:02:05;100185.19;;;15.66;84.02
76108;BME280;64834;52.516;10.528;2023-08-31T08:04:30;100178.81;;;15.91;82.54
76108;BME280;64834;52.516;10.528;2023-08-31T08:06:56;100182.69;;;16.05;80.66
76108;BME280;64834;52.516;10.528;2023-08-31T08:09:21;100182.81;;;15.77;80.87
76108;BME280;64834;52.516;10.528;2023-08-31T08:11:46;100188.59;;;15.62;83.70
76108;BME280;64834;52.516;10.528;2023-08-31T08:14:12;100192.28;;;15.38;81.86
76108;BME280;64834;52.516;10.528;2023-08-31T08:16:37;100202.22;;;15.17;83.62
76108;BME280;64834;52.516;10.528;2023-08-31T08:19:02;100208.66;;;14.97;84.58
76108;BME280;64834;52.516;10.528;2023-08-31T08:21:28;100197.09;;;14.92;84.01
76108;BME280;64834;52.516;10.528;2023-08-31T08:23:53;100201.34;;;14.88;84.35
76108;BME280;64834;52.516;10.528;2023-08-31T08:26:18;100199.81;;;14.95;83.84
76108;BME280;64834;52.516;10.528;2023-08-31T08:28:44;100203.16;;;15.19;83.87
76108;BME280;64834;52.516;10.528;2023-08-31T08:31:11;100200.06;;;15.64;83.83
76108;BME280;64834;52.516;10.528;2023-08-31T08:33:36;100205.97;;;15.57;80.23
76108;BME280;64834;52.516;10.528;2023-08-31T08:36:01;100199.25;;;15.67;82.39
76108;BME280;64834;52.516;10.528;2023-08-31T08:38:27;100199.59;;;16.13;82.46
76108;BME280;64834;52.516;10.528;2023-08-31T08:40:52;100207.13;;;16.33;80.40
76108;BME280;64834;52.516;10.528;2023-08-31T08:43:24;100198.25;;;16.29;79.30
76108;BME280;64834;52.516;10.528;2023-08-31T08:45:50;100202.25;;;16.13;77.37
76108;BME280;64834;52.516;10.528;2023-08-31T08:48:17;100210.03;;;16.09;78.37
76108;BME280;64834;52.516;10.528;2023-08-31T08:50:43;100202.47;;;16.23;78.13
76108;BME280;64834;52.516;10.528;2023-08-31T08:53:09;100202.03;;;16.04;75.83
76108;BME280;64834;52.516;10.528;2023-08-31T08:55:36;100207.91;;;15.94;76.67
76108;BME280;64834;52.516;10.528;2023-08-31T08:58:01;100205.38;;;15.99;76.38
76108;BME280;64834;52.516;10.528;2023-08-31T09:00:29;100195.44;;;16.23;77.87
76108;BME280;64834;52.516;10.528;2023-08-31T09:02:55;100196.31;;;16.22;77.27
76108;BME280;64834;52.516;10.528;2023-08-31T09:05:21;100205.72;;;16.47;76.55
76108;BME280;64834;52.516;10.528;2023-08-31T09:08:07;100199.31;;;16.74;74.53
76108;BME280;64834;52.516;10.528;2023-08-31T09:10:41;100197.38;;;17.06;73.90
76108;BME280;64834;52.516;10.528;2023-08-31T09:13:08;100190.50;;;17.14;70.60
76108;BME280;64834;52.516;10.528;2023-08-31T09:16:00;100184.56;;;16.83;71.14
76108;BME280;64834;52.516;10.528;2023-08-31T09:18:30;100184.19;;;16.68;74.05
76108;BME280;64834;52.516;10.528;2023-08-31T09:21:00;100183.00;;;16.55;74.96
76108;BME280;64834;52.516;10.528;2023-08-31T09:23:26;100188.03;;;16.44;74.41
76108;BME280;64834;52.516;10.528;2023-08-31T09:25:53;100184.59;;;16.47;73.17
76108;BME280;64834;52.516;10.528;2023-08-31T09:28:20;100173.94;;;16.80;71.22
76108;BME280;64834;52.516;10.528;2023-08-31T09:30:47;100174.50;;;17.08;70.87
76108;BME280;64834;52.516;10.528;2023-08-31T09:33:17;100178.13;;;17.11;69.88
76108;BME280;64834;52.516;10.528;2023-08-31T09:35:47;100175.22;;;16.99;69.49
76108;BME280;64834;52.516;10.528;2023-08-31T09:38:14;100176.13;;;16.62;71.53
76108;BME280;64834;52.516;10.528;2023-08-31T09:40:39;100169.88;;;16.58;73.75
76108;BME280;64834;52.516;10.528;2023-08-31T09:43:05;100169.44;;;17.17;70.93
76108;BME280;64834;52.516;10.528;2023-08-31T09:45:32;100159.75;;;17.19;69.79
76108;BME280;64834;52.516;10.528;2023-08-31T09:48:02;100163.72;;;17.41;70.95
76108;BME280;64834;52.516;10.528;2023-08-31T09:50:32;100170.47;;;17.25;68.57
76108;BME280;64834;52.516;10.528;2023-08-31T09:53:01;100159.25;;;17.38;69.52
76108;BME280;64834;52.516;10.528;2023-08-31T09:55:28;100159.75;;;17.19;70.14
76108;BME280;64834;52.516;10.528;2023-08-31T09:57:58;100162.91;;;17.01;71.13
76108;BME280;64834;52.516;10.528;2023-08-31T10:00:25;100156.69;;;16.97;70.34
76108;BME280;64834;52.516;10.528;2023-08-31T10:02:52;100163.34;;;16.79;70.29
76108;BME280;64834;52.516;10.528;2023-08-31T10:05:18;100150.41;;;16.92;71.53
76108;BME280;64834;52.516;10.528;2023-08-31T10:07:45;100151.81;;;17.17;70.16
76108;BME280;64834;52.516;10.528;2023-08-31T10:10:11;100163.50;;;17.29;68.60
76108;BME280;64834;52.516;10.528;2023-08-31T10:12:37;100156.13;;;17.14;69.33
76108;BME280;64834;52.516;10.528;2023-08-31T10:15:04;100153.72;;;17.26;70.62
76108;BME280;64834;52.516;10.528;2023-08-31T10:17:30;100155.34;;;17.18;68.44
76108;BME280;64834;52.516;10.528;2023-08-31T10:19:56;100164.06;;;17.14;69.28
76108;BME280;64834;52.516;10.528;2023-08-31T10:22:22;100158.91;;;17.20;69.48
76108;BME280;64834;52.516;10.528;2023-08-31T10:25:00;100158.16;;;17.27;69.98
76108;BME280;64834;52.516;10.528;2023-08-31T10:27:27;100158.53;;;17.47;67.37
76108;BME280;64834;52.516;10.528;2023-08-31T10:29:52;100152.69;;;17.63;67.46
76108;BME280;64834;52.516;10.528;2023-08-31T10:32:18;100146.31;;;17.53;66.45
76108;BME280;64834;52.516;10.528;2023-08-31T10:35:05;100148.94;;;17.52;67.00
76108;BME280;64834;52.516;10.528;2023-08-31T10:37:31;100147.81;;;16.95;67.35
76108;BME280;64834;52.516;10.528;2023-08-31T10:40:10;100160.72;;;16.80;68.81
76108;BME280;64834;52.516;10.528;2023-08-31T10:42:47;100160.97;;;16.91;69.99
76108;BME280;64834;52.516;10.528;2023-08-31T10:45:20;100160.53;;;16.35;70.54
76108;BME280;64834;52.516;10.528;2023-08-31T10:47:46;100171.75;;;16.26;71.96
76108;BME280;64834;52.516;10.528;2023-08-31T10:50:41;100161.41;;;15.99;76.71
76108;BME280;64834;52.516;10.528;2023-08-31T10:53:09;100171.03;;;15.64;81.05
76108;BME280;64834;52.516;10.528;2023-08-31T10:55:50;100173.22;;;15.47;81.27
76108;BME280;64834;52.516;10.528;2023-08-31T10:58:16;100177.94;;;15.27;84.54
76108;BME280;64834;52.516;10.528;2023-08-31T11:00:51;100163.78;;;15.25;85.27
76108;BME280;64834;52.516;10.528;2023-08-31T11:03:21;100161.53;;;15.07;84.84
76108;BME280;64834;52.516;10.528;2023-08-31T11:05:51;100163.44;;;15.13;86.02
76108;BME280;64834;52.516;10.528;2023-08-31T11:08:21;100169.50;;;15.09;86.40
76108;BME280;64834;52.516;10.528;2023-08-31T11:10:46;100169.28;;;15.33;89.32
76108;BME280;64834;52.516;10.528;2023-08-31T11:13:16;100180.56;;;15.59;87.82
76108;BME280;64834;52.516;10.528;2023-08-31T11:15:45;100171.09;;;16.00;88.60
76108;BME280;64834;52.516;10.528;2023-08-31T11:18:11;100175.19;;;16.22;84.27
76108;BME280;64834;52.516;10.528;2023-08-31T11:20:37;100173.59;;;16.29;85.24
76108;BME280;64834;52.516;10.528;2023-08-31T11:23:03;100172.97;;;16.40;81.40
76108;BME280;64834;52.516;10.528;2023-08-31T11:25:30;100164.78;;;16.66;83.33
76108;BME280;64834;52.516;10.528;2023-08-31T11:27:58;100164.97;;;16.74;78.55
76108;BME280;64834;52.516;10.528;2023-08-31T11:30:28;100166.72;;;16.73;77.63
76108;BME280;64834;52.516;10.528;2023-08-31T11:32:56;100164.63;;;17.41;76.29
76108;BME280;64834;52.516;10.528;2023-08-31T11:35:23;100161.09;;;17.88;75.18
76108;BME280;64834;52.516;10.528;2023-08-31T11:37:51;100161.41;;;17.58;69.21
76108;BME280;64834;52.516;10.528;2023-08-31T11:40:16;100156.22;;;17.18;69.10
76108;BME280;64834;52.516;10.528;2023-08-31T11:42:42;100160.66;;;17.19;70.86
76108;BME280;64834;52.516;10.528;2023-08-31T11:45:09;100158.97;;;17.23;71.67
76108;BME280;64834;52.516;10.528;2023-08-31T11:47:35;100158.94;;;17.67;70.08
76108;BME280;64834;52.516;10.528;2023-08-31T11:50:00;100157.22;;;18.19;67.23
76108;BME280;64834;52.516;10.528;2023-08-31T11:52:30;100154.38;;;18.08;64.75
76108;BME280;64834;52.516;10.528;2023-08-31T11:54:56;100148.97;;;18.02;63.15
76108;BME280;64834;52.516;10.528;2023-08-31T11:57:25;100143.47;;;17.88;63.46
76108;BME280;64834;52.516;10.528;2023-08-31T11:59:51;100147.88;;;18.42;62.33
76108;BME280;64834;52.516;10.528;2023-08-31T12:02:19;100139.56;;;18.78;61.60
76108;BME280;64834;52.516;10.528;2023-08-31T12:04:45;100146.03;;;18.37;60.68
76108;BME280;64834;52.516;10.528;2023-08-31T12:07:10;100151.09;;;18.80;59.97
76108;BME280;64834;52.516;10.528;2023-08-31T12:09:36;100144.38;;;19.08;59.66
76108;BME280;64834;52.516;10.528;2023-08-31T12:12:01;100153.50;;;18.65;60.38
76108;BME280;64834;52.516;10.528;2023-08-31T12:14:27;100157.81;;;18.58;61.78
76108;BME280;64834;52.516;10.528;2023-08-31T12:17:03;100160.84;;;18.84;60.23
76108;BME280;64834;52.516;10.528;2023-08-31T12:19:30;100168.19;;;19.04;58.22
76108;BME280;64834;52.516;10.528;2023-08-31T12:21:56;100157.34;;;18.85;56.32
76108;BME280;64834;52.516;10.528;2023-08-31T12:24:21;100154.75;;;18.29;56.63
76108;BME280;64834;52.516;10.528;2023-08-31T12:26:48;100170.00;;;18.47;58.41
76108;BME280;64834;52.516;10.528;2023-08-31T12:29:14;100171.34;;;18.19;57.05
76108;BME280;64834;52.516;10.528;2023-08-31T12:31:39;100170.66;;;17.79;57.44
76108;BME280;64834;52.516;10.528;2023-08-31T12:34:05;100170.50;;;17.72;58.07
76108;BME280;64834;52.516;10.528;2023-08-31T12:36:32;100169.94;;;17.43;59.23